sensor_id;sensor_type;location;lat;lon;timestamp;P1;durP1;ratioP1;P2;durP2;ratioP2
13588;SDS011;6865;52.552;13.434;2023-06-22T00:00:58;15.68;;;14.07;;
13588;SDS011;6865;52.552;13.434;2023-06-22T00:03:27;15.45;;;13.85;;
13588;SDS011;6865;52.552;13.434;2023-06-22T00:05:53;16.35;;;14.48;;
13588;SDS011;6865;52.552;13.434;2023-06-22T00:08:20;15.80;;;14.27;;
13588;SDS011;6865;52.552;13.434;2023-06-22T00:10:47;15.73;;;14.32;;
13588;SDS011;6865;52.552;13.434;2023-06-22T00:13:14;15.80;;;13.60;;
13588;SDS011;6865;52.552;13.434;2023-06-22T00:15:41;15.45;;;13.75;;
13588;SDS011;6865;52.552;13.434;2023-06-22T00:18:09;15.80;;;14.25;;
13588;SDS011;6865;52.552;13.434;2023-06-22T00:20:36;15.25;;;13.75;;
13588;SDS011;6865;52.552;13.434;2023-06-22T00:23:04;15.30;;;13.80;;
13588;SDS011;6865;52.552;13.434;2023-06-22T00:25:35;15.05;;;13.50;;
13588;SDS011;6865;52.552;13.434;2023-06-22T00:28:03;15.85;;;14.35;;
13588;SDS011;6865;52.552;13.434;2023-06-22T00:30:30;16.48;;;14.57;;
13588;SDS011;6865;52.552;13.434;2023-06-22T00:32:58;15.73;;;13.73;;
13588;SDS011;6865;52.552;13.434;2023-06-22T00:35:25;15.05;;;13.55;;
13588;SDS011;6865;52.552;13.434;2023-06-22T00:37:59;16.60;;;14.35;;
13588;SDS011;6865;52.552;13.434;2023-06-22T00:40:27;15.35;;;13.85;;
13588;SDS011;6865;52.552;13.434;2023-06-22T00:42:54;15.43;;;13.93;;
13588;SDS011;6865;52.552;13.434;2023-06-22T00:45:22;15.10;;;13.65;;
13588;SDS011;6865;52.552;13.434;2023-06-22T00:47:50;15.35;;;13.85;;
13588;SDS011;6865;52.552;13.434;2023-06-22T00:50:19;15.55;;;14.05;;
13588;SDS011;6865;52.552;13.434;2023-06-22T00:52:54;16.23;;;13.82;;
13588;SDS011;6865;52.552;13.434;2023-06-22T00:55:23;15.40;;;13.85;;
13588;SDS011;6865;52.552;13.434;2023-06-22T00:57:50;15.50;;;13.85;;
13588;SDS011;6865;52.552;13.434;2023-06-22T01:00:17;14.80;;;13.35;;
13588;SDS011;6865;52.552;13.434;2023-06-22T01:02:46;14.20;;;12.75;;
13588;SDS011;6865;52.552;13.434;2023-06-22T01:05:13;15.23;;;13.73;;
13588;SDS011;6865;52.552;13.434;2023-06-22T01:10:25;14.32;;;12.95;;
13588;SDS011;6865;52.552;13.434;2023-06-22T01:13:04;14.82;;;13.27;;
13588;SDS011;6865;52.552;13.434;2023-06-22T01:15:42;14.95;;;13.45;;
13588;SDS011;6865;52.552;13.434;2023-06-22T01:18:17;14.90;;;13.13;;
13588;SDS011;6865;52.552;13.434;2023-06-22T01:20:45;14.20;;;12.88;;
13588;SDS011;6865;52.552;13.434;2023-06-22T01:26:06;15.48;;;13.90;;
13588;SDS011;6865;52.552;13.434;2023-06-22T01:28:45;17.00;;;13.48;;
13588;SDS011;6865;52.552;13.434;2023-06-22T01:31:15;15.68;;;14.05;;
13588;SDS011;6865;52.552;13.434;2023-06-22T01:33:45;15.65;;;13.98;;
13588;SDS011;6865;52.552;13.434;2023-06-22T01:36:15;17.98;;;13.55;;
13588;SDS011;6865;52.552;13.434;2023-06-22T01:38:43;15.07;;;13.57;;
13588;SDS011;6865;52.552;13.434;2023-06-22T01:41:11;14.43;;;13.05;;
13588;SDS011;6865;52.552;13.434;2023-06-22T01:43:39;14.85;;;13.07;;
13588;SDS011;6865;52.552;13.434;2023-06-22T01:46:06;15.05;;;13.55;;
13588;SDS011;6865;52.552;13.434;2023-06-22T01:48:34;15.10;;;13.63;;
13588;SDS011;6865;52.552;13.434;2023-06-22T01:51:01;14.75;;;13.35;;
13588;SDS011;6865;52.552;13.434;2023-06-22T01:53:29;16.73;;;14.85;;
13588;SDS011;6865;52.552;13.434;2023-06-22T01:55:56;15.48;;;13.88;;
13588;SDS011;6865;52.552;13.434;2023-06-22T01:58:25;21.13;;;18.85;;
13588;SDS011;6865;52.552;13.434;2023-06-22T02:00:56;25.23;;;18.65;;
13588;SDS011;6865;52.552;13.434;2023-06-22T02:03:30;22.40;;;20.10;;
13588;SDS011;6865;52.552;13.434;2023-06-22T02:06:05;24.83;;;21.05;;
13588;SDS011;6865;52.552;13.434;2023-06-22T02:08:41;24.58;;;20.38;;
13588;SDS011;6865;52.552;13.434;2023-06-22T02:11:12;22.55;;;20.15;;
13588;SDS011;6865;52.552;13.434;2023-06-22T02:13:41;22.30;;;19.70;;
13588;SDS011;6865;52.552;13.434;2023-06-22T02:16:10;23.10;;;19.60;;
13588;SDS011;6865;52.552;13.434;2023-06-22T02:18:38;24.45;;;19.58;;
13588;SDS011;6865;52.552;13.434;2023-06-22T02:21:06;21.85;;;19.20;;
13588;SDS011;6865;52.552;13.434;2023-06-22T02:23:33;20.30;;;18.23;;
13588;SDS011;6865;52.552;13.434;2023-06-22T02:26:02;24.90;;;19.65;;
13588;SDS011;6865;52.552;13.434;2023-06-22T02:28:29;20.98;;;18.80;;
13588;SDS011;6865;52.552;13.434;2023-06-22T02:30:56;21.42;;;19.02;;
13588;SDS011;6865;52.552;13.434;2023-06-22T02:33:23;21.00;;;18.70;;
13588;SDS011;6865;52.552;13.434;2023-06-22T02:35:49;21.27;;;18.13;;
13588;SDS011;6865;52.552;13.434;2023-06-22T02:38:16;20.83;;;18.63;;
13588;SDS011;6865;52.552;13.434;2023-06-22T02:40:43;19.90;;;17.73;;
13588;SDS011;6865;52.552;13.434;2023-06-22T02:43:10;20.05;;;17.95;;
13588;SDS011;6865;52.552;13.434;2023-06-22T02:45:37;22.15;;;16.75;;
13588;SDS011;6865;52.552;13.434;2023-06-22T02:48:04;18.92;;;16.92;;
13588;SDS011;6865;52.552;13.434;2023-06-22T02:50:31;18.15;;;16.27;;
13588;SDS011;6865;52.552;13.434;2023-06-22T02:52:58;21.52;;;16.77;;
13588;SDS011;6865;52.552;13.434;2023-06-22T02:55:24;17.92;;;16.02;;
13588;SDS011;6865;52.552;13.434;2023-06-22T02:57:51;18.60;;;16.35;;
13588;SDS011;6865;52.552;13.434;2023-06-22T03:00:19;18.33;;;16.52;;
13588;SDS011;6865;52.552;13.434;2023-06-22T03:02:46;17.42;;;15.63;;
13588;SDS011;6865;52.552;13.434;2023-06-22T03:05:14;18.55;;;16.67;;
13588;SDS011;6865;52.552;13.434;2023-06-22T03:07:44;18.33;;;16.42;;
13588;SDS011;6865;52.552;13.434;2023-06-22T03:10:11;19.17;;;17.15;;
13588;SDS011;6865;52.552;13.434;2023-06-22T03:12:39;18.42;;;16.52;;
13588;SDS011;6865;52.552;13.434;2023-06-22T03:15:07;22.08;;;17.70;;
13588;SDS011;6865;52.552;13.434;2023-06-22T03:17:36;20.13;;;18.02;;
13588;SDS011;6865;52.552;13.434;2023-06-22T03:20:05;19.88;;;17.77;;
13588;SDS011;6865;52.552;13.434;2023-06-22T03:22:37;19.75;;;17.63;;
13588;SDS011;6865;52.552;13.434;2023-06-22T03:25:05;19.17;;;17.23;;
13588;SDS011;6865;52.552;13.434;2023-06-22T03:27:37;20.88;;;18.27;;
13588;SDS011;6865;52.552;13.434;2023-06-22T03:30:04;23.85;;;18.58;;
13588;SDS011;6865;52.552;13.434;2023-06-22T03:32:32;25.65;;;18.05;;
13588;SDS011;6865;52.552;13.434;2023-06-22T03:34:58;21.85;;;18.30;;
13588;SDS011;6865;52.552;13.434;2023-06-22T03:37:25;19.58;;;17.38;;
13588;SDS011;6865;52.552;13.434;2023-06-22T03:39:53;20.55;;;17.80;;
13588;SDS011;6865;52.552;13.434;2023-06-22T03:42:20;20.75;;;16.92;;
13588;SDS011;6865;52.552;13.434;2023-06-22T03:44:47;19.30;;;17.30;;
13588;SDS011;6865;52.552;13.434;2023-06-22T03:47:14;20.42;;;16.98;;
13588;SDS011;6865;52.552;13.434;2023-06-22T03:49:40;19.38;;;16.15;;
13588;SDS011;6865;52.552;13.434;2023-06-22T03:52:07;18.92;;;16.63;;
13588;SDS011;6865;52.552;13.434;2023-06-22T03:54:34;18.33;;;16.35;;
13588;SDS011;6865;52.552;13.434;2023-06-22T03:57:01;17.88;;;15.98;;
13588;SDS011;6865;52.552;13.434;2023-06-22T03:59:28;15.93;;;14.30;;
13588;SDS011;6865;52.552;13.434;2023-06-22T04:01:54;15.95;;;14.25;;
13588;SDS011;6865;52.552;13.434;2023-06-22T04:04:21;15.43;;;13.93;;
13588;SDS011;6865;52.552;13.434;2023-06-22T04:06:48;14.90;;;13.35;;
13588;SDS011;6865;52.552;13.434;2023-06-22T04:09:14;16.00;;;13.27;;
13588;SDS011;6865;52.552;13.434;2023-06-22T04:11:41;14.38;;;12.85;;
13588;SDS011;6865;52.552;13.434;2023-06-22T04:14:08;13.50;;;12.20;;
13588;SDS011;6865;52.552;13.434;2023-06-22T04:16:34;13.77;;;11.98;;
13588;SDS011;6865;52.552;13.434;2023-06-22T04:19:01;13.23;;;11.93;;
13588;SDS011;6865;52.552;13.434;2023-06-22T04:21:28;13.18;;;11.23;;
13588;SDS011;6865;52.552;13.434;2023-06-22T04:23:54;13.30;;;11.40;;
13588;SDS011;6865;52.552;13.434;2023-06-22T04:26:21;14.50;;;10.77;;
13588;SDS011;6865;52.552;13.434;2023-06-22T04:28:48;13.73;;;10.90;;
13588;SDS011;6865;52.552;13.434;2023-06-22T04:31:18;12.48;;;10.70;;
13588;SDS011;6865;52.552;13.434;2023-06-22T04:33:45;11.43;;;10.32;;
13588;SDS011;6865;52.552;13.434;2023-06-22T04:36:12;13.50;;;9.98;;
13588;SDS011;6865;52.552;13.434;2023-06-22T04:38:39;12.23;;;10.95;;
13588;SDS011;6865;52.552;13.434;2023-06-22T04:41:06;10.45;;;9.18;;
13588;SDS011;6865;52.552;13.434;2023-06-22T04:43:33;10.00;;;9.00;;
13588;SDS011;6865;52.552;13.434;2023-06-22T04:46:03;12.68;;;9.73;;
13588;SDS011;6865;52.552;13.434;2023-06-22T04:48:30;11.52;;;9.63;;
13588;SDS011;6865;52.552;13.434;2023-06-22T04:51:00;12.93;;;9.27;;
13588;SDS011;6865;52.552;13.434;2023-06-22T04:53:30;12.40;;;9.05;;
13588;SDS011;6865;52.552;13.434;2023-06-22T04:55:58;10.60;;;8.40;;
13588;SDS011;6865;52.552;13.434;2023-06-22T04:58:24;8.45;;;7.57;;
13588;SDS011;6865;52.552;13.434;2023-06-22T05:00:54;9.65;;;7.10;;
13588;SDS011;6865;52.552;13.434;2023-06-22T05:03:24;8.68;;;6.53;;
13588;SDS011;6865;52.552;13.434;2023-06-22T05:05:52;8.25;;;6.70;;
13588;SDS011;6865;52.552;13.434;2023-06-22T05:08:20;9.48;;;6.85;;
13588;SDS011;6865;52.552;13.434;2023-06-22T05:10:46;7.72;;;6.30;;
13588;SDS011;6865;52.552;13.434;2023-06-22T05:13:29;8.73;;;5.80;;
13588;SDS011;6865;52.552;13.434;2023-06-22T05:15:56;8.93;;;6.43;;
13588;SDS011;6865;52.552;13.434;2023-06-22T05:18:28;8.95;;;5.35;;
13588;SDS011;6865;52.552;13.434;2023-06-22T05:20:58;11.60;;;5.82;;
13588;SDS011;6865;52.552;13.434;2023-06-22T05:23:25;8.13;;;5.43;;
13588;SDS011;6865;52.552;13.434;2023-06-22T05:25:52;8.85;;;4.82;;
13588;SDS011;6865;52.552;13.434;2023-06-22T05:28:20;7.35;;;5.00;;
13588;SDS011;6865;52.552;13.434;2023-06-22T05:30:49;6.57;;;4.38;;
13588;SDS011;6865;52.552;13.434;2023-06-22T05:33:16;7.35;;;4.70;;
13588;SDS011;6865;52.552;13.434;2023-06-22T05:35:43;6.82;;;4.50;;
13588;SDS011;6865;52.552;13.434;2023-06-22T05:38:09;7.80;;;5.15;;
13588;SDS011;6865;52.552;13.434;2023-06-22T05:40:36;7.15;;;4.57;;
13588;SDS011;6865;52.552;13.434;2023-06-22T05:43:03;9.82;;;4.95;;
13588;SDS011;6865;52.552;13.434;2023-06-22T05:45:30;7.97;;;4.75;;
13588;SDS011;6865;52.552;13.434;2023-06-22T05:47:56;6.10;;;4.80;;
13588;SDS011;6865;52.552;13.434;2023-06-22T05:50:23;6.50;;;4.20;;
13588;SDS011;6865;52.552;13.434;2023-06-22T05:52:50;5.60;;;4.05;;
13588;SDS011;6865;52.552;13.434;2023-06-22T05:55:16;8.20;;;4.78;;
13588;SDS011;6865;52.552;13.434;2023-06-22T05:57:44;9.70;;;4.78;;
13588;SDS011;6865;52.552;13.434;2023-06-22T06:00:11;9.68;;;4.50;;
13588;SDS011;6865;52.552;13.434;2023-06-22T06:02:39;7.97;;;5.25;;
13588;SDS011;6865;52.552;13.434;2023-06-22T06:05:11;10.82;;;4.57;;
13588;SDS011;6865;52.552;13.434;2023-06-22T06:07:40;7.72;;;4.53;;
13588;SDS011;6865;52.552;13.434;2023-06-22T06:10:08;6.82;;;5.10;;
13588;SDS011;6865;52.552;13.434;2023-06-22T06:12:35;7.32;;;5.18;;
13588;SDS011;6865;52.552;13.434;2023-06-22T06:15:03;5.25;;;4.60;;
13588;SDS011;6865;52.552;13.434;2023-06-22T06:17:30;6.72;;;4.70;;
13588;SDS011;6865;52.552;13.434;2023-06-22T06:19:59;7.38;;;5.20;;
13588;SDS011;6865;52.552;13.434;2023-06-22T06:22:26;6.70;;;4.93;;
13588;SDS011;6865;52.552;13.434;2023-06-22T06:24:53;6.95;;;5.35;;
13588;SDS011;6865;52.552;13.434;2023-06-22T06:27:20;6.60;;;5.22;;
13588;SDS011;6865;52.552;13.434;2023-06-22T06:29:46;5.65;;;4.30;;
13588;SDS011;6865;52.552;13.434;2023-06-22T06:32:14;7.80;;;4.93;;
13588;SDS011;6865;52.552;13.434;2023-06-22T06:34:41;7.63;;;4.88;;
13588;SDS011;6865;52.552;13.434;2023-06-22T06:37:09;6.55;;;4.40;;
13588;SDS011;6865;52.552;13.434;2023-06-22T06:39:35;7.90;;;4.53;;
13588;SDS011;6865;52.552;13.434;2023-06-22T06:42:02;5.70;;;4.30;;
13588;SDS011;6865;52.552;13.434;2023-06-22T06:44:31;6.18;;;3.80;;
13588;SDS011;6865;52.552;13.434;2023-06-22T06:46:57;6.35;;;3.95;;
13588;SDS011;6865;52.552;13.434;2023-06-22T06:49:24;6.60;;;4.22;;
13588;SDS011;6865;52.552;13.434;2023-06-22T06:51:51;8.52;;;4.00;;
13588;SDS011;6865;52.552;13.434;2023-06-22T06:54:17;5.03;;;4.00;;
13588;SDS011;6865;52.552;13.434;2023-06-22T06:56:47;4.93;;;3.83;;
13588;SDS011;6865;52.552;13.434;2023-06-22T06:59:14;5.38;;;4.20;;
13588;SDS011;6865;52.552;13.434;2023-06-22T07:01:41;4.72;;;3.72;;
13588;SDS011;6865;52.552;13.434;2023-06-22T07:04:10;4.63;;;3.70;;
13588;SDS011;6865;52.552;13.434;2023-06-22T07:06:37;4.57;;;3.30;;
13588;SDS011;6865;52.552;13.434;2023-06-22T07:09:05;6.30;;;3.83;;
13588;SDS011;6865;52.552;13.434;2023-06-22T07:11:31;9.00;;;3.95;;
13588;SDS011;6865;52.552;13.434;2023-06-22T07:13:59;6.72;;;4.05;;
13588;SDS011;6865;52.552;13.434;2023-06-22T07:16:27;4.60;;;3.70;;
13588;SDS011;6865;52.552;13.434;2023-06-22T07:18:54;6.53;;;3.65;;
13588;SDS011;6865;52.552;13.434;2023-06-22T07:21:21;4.82;;;3.63;;
13588;SDS011;6865;52.552;13.434;2023-06-22T07:23:48;5.85;;;3.58;;
13588;SDS011;6865;52.552;13.434;2023-06-22T07:26:14;4.65;;;3.58;;
13588;SDS011;6865;52.552;13.434;2023-06-22T07:28:42;5.70;;;3.30;;
13588;SDS011;6865;52.552;13.434;2023-06-22T07:31:08;5.82;;;3.40;;
13588;SDS011;6865;52.552;13.434;2023-06-22T07:33:35;3.90;;;3.30;;
13588;SDS011;6865;52.552;13.434;2023-06-22T07:36:02;4.75;;;3.33;;
13588;SDS011;6865;52.552;13.434;2023-06-22T07:38:33;3.92;;;3.10;;
13588;SDS011;6865;52.552;13.434;2023-06-22T07:41:02;7.72;;;4.50;;
13588;SDS011;6865;52.552;13.434;2023-06-22T07:43:31;4.25;;;3.58;;
13588;SDS011;6865;52.552;13.434;2023-06-22T07:46:00;4.63;;;3.10;;
13588;SDS011;6865;52.552;13.434;2023-06-22T07:48:27;3.05;;;2.50;;
13588;SDS011;6865;52.552;13.434;2023-06-22T07:50:53;4.20;;;2.95;;
13588;SDS011;6865;52.552;13.434;2023-06-22T07:53:21;3.33;;;2.65;;
13588;SDS011;6865;52.552;13.434;2023-06-22T07:55:49;4.95;;;2.80;;
13588;SDS011;6865;52.552;13.434;2023-06-22T07:58:16;3.08;;;2.75;;
13588;SDS011;6865;52.552;13.434;2023-06-22T08:00:46;3.63;;;2.50;;
13588;SDS011;6865;52.552;13.434;2023-06-22T08:03:15;5.00;;;2.88;;
13588;SDS011;6865;52.552;13.434;2023-06-22T08:05:42;3.72;;;3.10;;
13588;SDS011;6865;52.552;13.434;2023-06-22T08:08:09;4.13;;;2.92;;
13588;SDS011;6865;52.552;13.434;2023-06-22T08:10:36;3.10;;;2.80;;
13588;SDS011;6865;52.552;13.434;2023-06-22T08:13:02;5.07;;;3.08;;
13588;SDS011;6865;52.552;13.434;2023-06-22T08:15:29;5.68;;;2.97;;
13588;SDS011;6865;52.552;13.434;2023-06-22T08:17:56;3.70;;;2.58;;
13588;SDS011;6865;52.552;13.434;2023-06-22T08:20:24;3.60;;;2.85;;
13588;SDS011;6865;52.552;13.434;2023-06-22T08:22:50;5.15;;;3.20;;
13588;SDS011;6865;52.552;13.434;2023-06-22T08:25:17;5.57;;;3.05;;
13588;SDS011;6865;52.552;13.434;2023-06-22T08:27:44;5.20;;;3.05;;
13588;SDS011;6865;52.552;13.434;2023-06-22T08:30:13;5.55;;;3.03;;
13588;SDS011;6865;52.552;13.434;2023-06-22T08:32:40;4.75;;;2.90;;
13588;SDS011;6865;52.552;13.434;2023-06-22T08:35:06;5.35;;;3.25;;
13588;SDS011;6865;52.552;13.434;2023-06-22T08:37:36;3.85;;;3.00;;
13588;SDS011;6865;52.552;13.434;2023-06-22T08:40:06;4.88;;;2.90;;
13588;SDS011;6865;52.552;13.434;2023-06-22T08:42:40;3.22;;;2.92;;
13588;SDS011;6865;52.552;13.434;2023-06-22T08:45:08;7.35;;;2.92;;
13588;SDS011;6865;52.552;13.434;2023-06-22T08:47:35;4.60;;;3.50;;
13588;SDS011;6865;52.552;13.434;2023-06-22T08:50:02;4.72;;;3.35;;
13588;SDS011;6865;52.552;13.434;2023-06-22T08:52:29;3.85;;;3.20;;
13588;SDS011;6865;52.552;13.434;2023-06-22T08:54:56;6.28;;;3.40;;
13588;SDS011;6865;52.552;13.434;2023-06-22T08:57:24;5.43;;;3.10;;
13588;SDS011;6865;52.552;13.434;2023-06-22T08:59:51;7.30;;;3.70;;
13588;SDS011;6865;52.552;13.434;2023-06-22T09:02:25;4.38;;;3.40;;
13588;SDS011;6865;52.552;13.434;2023-06-22T09:04:52;5.80;;;3.28;;
13588;SDS011;6865;52.552;13.434;2023-06-22T09:07:22;5.63;;;3.60;;
13588;SDS011;6865;52.552;13.434;2023-06-22T09:09:50;3.45;;;3.15;;
13588;SDS011;6865;52.552;13.434;2023-06-22T09:12:17;4.38;;;3.30;;
13588;SDS011;6865;52.552;13.434;2023-06-22T09:14:46;5.22;;;3.30;;
13588;SDS011;6865;52.552;13.434;2023-06-22T09:17:12;5.13;;;3.65;;
13588;SDS011;6865;52.552;13.434;2023-06-22T09:19:39;5.78;;;3.58;;
13588;SDS011;6865;52.552;13.434;2023-06-22T09:22:06;5.45;;;3.50;;
13588;SDS011;6865;52.552;13.434;2023-06-22T09:24:33;6.95;;;3.70;;
13588;SDS011;6865;52.552;13.434;2023-06-22T09:26:59;4.60;;;3.10;;
13588;SDS011;6865;52.552;13.434;2023-06-22T09:29:26;4.82;;;3.28;;
13588;SDS011;6865;52.552;13.434;2023-06-22T09:31:52;4.57;;;3.28;;
13588;SDS011;6865;52.552;13.434;2023-06-22T09:34:22;5.65;;;3.25;;
13588;SDS011;6865;52.552;13.434;2023-06-22T09:36:49;3.53;;;3.20;;
13588;SDS011;6865;52.552;13.434;2023-06-22T09:39:16;3.72;;;3.33;;
13588;SDS011;6865;52.552;13.434;2023-06-22T09:41:44;3.83;;;3.08;;
13588;SDS011;6865;52.552;13.434;2023-06-22T09:44:11;6.60;;;3.70;;
13588;SDS011;6865;52.552;13.434;2023-06-22T09:46:37;3.75;;;3.30;;
13588;SDS011;6865;52.552;13.434;2023-06-22T09:49:04;5.13;;;3.15;;
13588;SDS011;6865;52.552;13.434;2023-06-22T09:51:30;4.68;;;3.20;;
13588;SDS011;6865;52.552;13.434;2023-06-22T09:53:57;6.03;;;3.25;;
13588;SDS011;6865;52.552;13.434;2023-06-22T09:56:24;3.58;;;3.25;;
13588;SDS011;6865;52.552;13.434;2023-06-22T09:58:53;4.88;;;3.22;;
13588;SDS011;6865;52.552;13.434;2023-06-22T10:01:31;3.90;;;3.20;;
13588;SDS011;6865;52.552;13.434;2023-06-22T10:03:57;6.32;;;3.58;;
13588;SDS011;6865;52.552;13.434;2023-06-22T10:06:25;3.60;;;2.95;;
13588;SDS011;6865;52.552;13.434;2023-06-22T10:08:51;3.60;;;3.15;;
13588;SDS011;6865;52.552;13.434;2023-06-22T10:11:18;6.75;;;3.22;;
13588;SDS011;6865;52.552;13.434;2023-06-22T10:13:45;3.55;;;3.13;;
13588;SDS011;6865;52.552;13.434;2023-06-22T10:16:11;5.57;;;3.10;;
13588;SDS011;6865;52.552;13.434;2023-06-22T10:18:38;3.80;;;3.30;;
13588;SDS011;6865;52.552;13.434;2023-06-22T10:21:04;5.45;;;3.85;;
13588;SDS011;6865;52.552;13.434;2023-06-22T10:23:31;4.63;;;3.75;;
13588;SDS011;6865;52.552;13.434;2023-06-22T10:25:58;4.22;;;3.50;;
13588;SDS011;6865;52.552;13.434;2023-06-22T10:28:24;4.97;;;3.85;;
13588;SDS011;6865;52.552;13.434;2023-06-22T10:30:51;3.85;;;3.45;;
13588;SDS011;6865;52.552;13.434;2023-06-22T10:33:18;5.15;;;3.72;;
13588;SDS011;6865;52.552;13.434;2023-06-22T10:35:45;4.50;;;3.88;;
13588;SDS011;6865;52.552;13.434;2023-06-22T10:38:11;4.82;;;3.60;;
13588;SDS011;6865;52.552;13.434;2023-06-22T10:40:38;4.00;;;3.60;;
13588;SDS011;6865;52.552;13.434;2023-06-22T10:43:05;4.90;;;3.47;;
13588;SDS011;6865;52.552;13.434;2023-06-22T10:45:32;5.30;;;3.55;;
13588;SDS011;6865;52.552;13.434;2023-06-22T10:47:59;6.28;;;3.70;;
13588;SDS011;6865;52.552;13.434;2023-06-22T10:50:26;6.78;;;3.83;;
13588;SDS011;6865;52.552;13.434;2023-06-22T10:52:53;4.50;;;3.70;;
13588;SDS011;6865;52.552;13.434;2023-06-22T10:55:23;5.93;;;3.80;;
13588;SDS011;6865;52.552;13.434;2023-06-22T10:57:50;4.88;;;3.70;;
13588;SDS011;6865;52.552;13.434;2023-06-22T11:00:18;5.03;;;3.88;;
13588;SDS011;6865;52.552;13.434;2023-06-22T11:02:45;4.72;;;3.63;;
13588;SDS011;6865;52.552;13.434;2023-06-22T11:05:11;5.85;;;3.70;;
13588;SDS011;6865;52.552;13.434;2023-06-22T11:07:42;6.20;;;4.03;;
13588;SDS011;6865;52.552;13.434;2023-06-22T11:10:09;6.43;;;3.38;;
13588;SDS011;6865;52.552;13.434;2023-06-22T11:12:37;3.88;;;3.45;;
13588;SDS011;6865;52.552;13.434;2023-06-22T11:15:04;5.13;;;3.70;;
13588;SDS011;6865;52.552;13.434;2023-06-22T11:17:31;4.85;;;3.50;;
13588;SDS011;6865;52.552;13.434;2023-06-22T11:19:58;5.90;;;3.42;;
13588;SDS011;6865;52.552;13.434;2023-06-22T11:22:26;4.63;;;3.90;;
13588;SDS011;6865;52.552;13.434;2023-06-22T11:24:53;4.68;;;4.00;;
13588;SDS011;6865;52.552;13.434;2023-06-22T11:27:19;5.20;;;3.42;;
13588;SDS011;6865;52.552;13.434;2023-06-22T11:29:47;4.18;;;3.78;;
13588;SDS011;6865;52.552;13.434;2023-06-22T11:32:13;6.72;;;3.70;;
13588;SDS011;6865;52.552;13.434;2023-06-22T11:34:40;4.85;;;4.20;;
13588;SDS011;6865;52.552;13.434;2023-06-22T11:37:07;7.72;;;3.72;;
13588;SDS011;6865;52.552;13.434;2023-06-22T11:39:34;6.43;;;3.50;;
13588;SDS011;6865;52.552;13.434;2023-06-22T11:42:08;4.90;;;3.30;;
13588;SDS011;6865;52.552;13.434;2023-06-22T11:44:35;3.85;;;3.40;;
13588;SDS011;6865;52.552;13.434;2023-06-22T11:47:02;3.95;;;3.45;;
13588;SDS011;6865;52.552;13.434;2023-06-22T11:49:30;4.32;;;3.92;;
13588;SDS011;6865;52.552;13.434;2023-06-22T11:51:57;4.20;;;3.42;;
13588;SDS011;6865;52.552;13.434;2023-06-22T11:54:24;4.30;;;3.90;;
13588;SDS011;6865;52.552;13.434;2023-06-22T11:56:50;4.43;;;3.95;;
13588;SDS011;6865;52.552;13.434;2023-06-22T11:59:17;4.00;;;3.60;;
13588;SDS011;6865;52.552;13.434;2023-06-22T12:01:44;4.15;;;3.70;;
13588;SDS011;6865;52.552;13.434;2023-06-22T12:04:12;3.88;;;3.47;;
13588;SDS011;6865;52.552;13.434;2023-06-22T12:06:40;5.25;;;4.00;;
13588;SDS011;6865;52.552;13.434;2023-06-22T12:09:09;4.65;;;3.97;;
13588;SDS011;6865;52.552;13.434;2023-06-22T12:11:36;4.13;;;3.72;;
13588;SDS011;6865;52.552;13.434;2023-06-22T12:14:03;4.25;;;3.85;;
13588;SDS011;6865;52.552;13.434;2023-06-22T12:16:30;4.78;;;3.55;;
13588;SDS011;6865;52.552;13.434;2023-06-22T12:18:57;6.00;;;4.00;;
13588;SDS011;6865;52.552;13.434;2023-06-22T12:21:23;4.47;;;3.40;;
13588;SDS011;6865;52.552;13.434;2023-06-22T12:23:50;3.83;;;3.53;;
13588;SDS011;6865;52.552;13.434;2023-06-22T12:26:17;3.92;;;3.53;;
13588;SDS011;6865;52.552;13.434;2023-06-22T12:28:43;4.97;;;3.75;;
13588;SDS011;6865;52.552;13.434;2023-06-22T12:31:10;5.13;;;4.32;;
13588;SDS011;6865;52.552;13.434;2023-06-22T12:33:37;4.38;;;3.97;;
13588;SDS011;6865;52.552;13.434;2023-06-22T12:36:03;5.28;;;3.85;;
13588;SDS011;6865;52.552;13.434;2023-06-22T12:38:31;4.82;;;3.72;;
13588;SDS011;6865;52.552;13.434;2023-06-22T12:40:57;3.90;;;3.50;;
13588;SDS011;6865;52.552;13.434;2023-06-22T12:43:24;4.70;;;3.88;;
13588;SDS011;6865;52.552;13.434;2023-06-22T12:45:51;4.03;;;3.63;;
13588;SDS011;6865;52.552;13.434;2023-06-22T12:48:17;4.97;;;4.32;;
13588;SDS011;6865;52.552;13.434;2023-06-22T12:50:44;7.60;;;3.80;;
13588;SDS011;6865;52.552;13.434;2023-06-22T12:53:12;4.50;;;4.10;;
13588;SDS011;6865;52.552;13.434;2023-06-22T12:55:39;4.55;;;4.00;;
13588;SDS011;6865;52.552;13.434;2023-06-22T12:58:06;4.85;;;4.40;;
13588;SDS011;6865;52.552;13.434;2023-06-22T13:00:32;5.03;;;4.53;;
13588;SDS011;6865;52.552;13.434;2023-06-22T13:02:59;6.93;;;4.30;;
13588;SDS011;6865;52.552;13.434;2023-06-22T13:05:26;6.78;;;4.68;;
13588;SDS011;6865;52.552;13.434;2023-06-22T13:07:53;4.63;;;4.13;;
13588;SDS011;6865;52.552;13.434;2023-06-22T13:10:21;5.57;;;4.60;;
13588;SDS011;6865;52.552;13.434;2023-06-22T13:12:47;7.28;;;4.15;;
13588;SDS011;6865;52.552;13.434;2023-06-22T13:15:14;4.47;;;4.07;;
13588;SDS011;6865;52.552;13.434;2023-06-22T13:17:41;5.35;;;4.45;;
13588;SDS011;6865;52.552;13.434;2023-06-22T13:20:08;5.82;;;4.80;;
13588;SDS011;6865;52.552;13.434;2023-06-22T13:22:35;5.32;;;4.47;;
13588;SDS011;6865;52.552;13.434;2023-06-22T13:25:11;5.43;;;4.18;;
13588;SDS011;6865;52.552;13.434;2023-06-22T13:27:42;5.07;;;4.50;;
13588;SDS011;6865;52.552;13.434;2023-06-22T13:30:09;5.93;;;4.45;;
13588;SDS011;6865;52.552;13.434;2023-06-22T13:32:40;4.40;;;4.07;;
13588;SDS011;6865;52.552;13.434;2023-06-22T13:35:09;4.53;;;4.13;;
13588;SDS011;6865;52.552;13.434;2023-06-22T13:37:36;6.10;;;4.70;;
13588;SDS011;6865;52.552;13.434;2023-06-22T13:40:03;5.85;;;4.25;;
13588;SDS011;6865;52.552;13.434;2023-06-22T13:42:34;4.97;;;4.47;;
13588;SDS011;6865;52.552;13.434;2023-06-22T13:45:01;5.10;;;4.60;;
13588;SDS011;6865;52.552;13.434;2023-06-22T13:47:29;4.90;;;4.40;;
13588;SDS011;6865;52.552;13.434;2023-06-22T13:49:57;7.35;;;4.40;;
13588;SDS011;6865;52.552;13.434;2023-06-22T13:52:24;6.55;;;4.70;;
13588;SDS011;6865;52.552;13.434;2023-06-22T13:54:51;5.00;;;4.50;;
13588;SDS011;6865;52.552;13.434;2023-06-22T13:57:18;4.85;;;4.32;;
13588;SDS011;6865;52.552;13.434;2023-06-22T13:59:45;6.05;;;4.30;;
13588;SDS011;6865;52.552;13.434;2023-06-22T14:02:12;8.90;;;4.75;;
13588;SDS011;6865;52.552;13.434;2023-06-22T14:04:38;7.63;;;4.55;;
13588;SDS011;6865;52.552;13.434;2023-06-22T14:07:05;5.50;;;5.00;;
13588;SDS011;6865;52.552;13.434;2023-06-22T14:09:32;5.32;;;4.70;;
13588;SDS011;6865;52.552;13.434;2023-06-22T14:12:02;5.47;;;4.57;;
13588;SDS011;6865;52.552;13.434;2023-06-22T14:14:31;5.93;;;4.88;;
13588;SDS011;6865;52.552;13.434;2023-06-22T14:16:59;5.57;;;5.00;;
13588;SDS011;6865;52.552;13.434;2023-06-22T14:19:26;6.30;;;4.80;;
13588;SDS011;6865;52.552;13.434;2023-06-22T14:21:52;6.18;;;4.85;;
13588;SDS011;6865;52.552;13.434;2023-06-22T14:24:19;5.75;;;4.53;;
13588;SDS011;6865;52.552;13.434;2023-06-22T14:26:50;5.53;;;4.95;;
13588;SDS011;6865;52.552;13.434;2023-06-22T14:29:17;4.90;;;4.47;;
13588;SDS011;6865;52.552;13.434;2023-06-22T14:31:44;8.20;;;5.18;;
13588;SDS011;6865;52.552;13.434;2023-06-22T14:34:13;5.47;;;4.97;;
13588;SDS011;6865;52.552;13.434;2023-06-22T14:36:40;5.78;;;5.25;;
13588;SDS011;6865;52.552;13.434;2023-06-22T14:39:08;4.95;;;4.47;;
13588;SDS011;6865;52.552;13.434;2023-06-22T14:41:35;6.35;;;5.60;;
13588;SDS011;6865;52.552;13.434;2023-06-22T14:44:02;6.30;;;5.47;;
13588;SDS011;6865;52.552;13.434;2023-06-22T14:46:28;5.13;;;4.70;;